createdAt,value
2023-06-07T04:07:24.665Z,16.20
2023-06-07T04:10:51.883Z,16.20
2023-06-07T04:14:18.939Z,16.30
2023-06-07T04:17:48.688Z,16.10
2023-06-07T04:21:16.366Z,16.00
2023-06-07T04:24:44.964Z,16.00
2023-06-07T04:28:13.623Z,15.80
2023-06-07T04:31:43.231Z,15.80
2023-06-07T04:35:11.474Z,15.70
2023-06-07T04:38:54.057Z,15.80
2023-06-07T04:42:28.605Z,15.70
2023-06-07T04:45:56.719Z,15.60
2023-06-07T04:49:24.536Z,15.70
2023-06-07T04:52:51.823Z,15.70
2023-06-07T04:56:20.081Z,15.60
2023-06-07T04:59:49.773Z,15.70
2023-06-07T05:03:23.055Z,16.00
2023-06-07T05:06:50.973Z,15.80
2023-06-07T05:10:18.928Z,15.60
2023-06-07T05:13:47.874Z,15.60
2023-06-07T05:17:20.291Z,15.60
2023-06-07T05:20:49.371Z,15.60
2023-06-07T05:24:17.743Z,15.60
2023-06-07T05:27:44.946Z,15.40
2023-06-07T05:31:13.885Z,15.40
2023-06-07T05:34:43.394Z,15.40
2023-06-07T05:38:10.473Z,15.40
2023-06-07T05:41:39.428Z,15.50
2023-06-07T05:45:08.598Z,15.50
2023-06-07T05:48:37.494Z,15.70
2023-06-07T05:52:06.656Z,15.80
2023-06-07T05:55:33.573Z,15.50
2023-06-07T05:59:00.793Z,15.50
2023-06-07T06:02:31.531Z,15.50
2023-06-07T06:05:58.665Z,15.40
2023-06-07T06:09:27.300Z,15.50
2023-06-07T06:12:57.002Z,15.60
2023-06-07T06:16:25.210Z,15.70
2023-06-07T06:19:52.710Z,15.80
2023-06-07T06:23:19.757Z,15.70
2023-06-07T06:26:48.328Z,15.70
2023-06-07T06:30:19.765Z,15.50
2023-06-07T06:33:47.161Z,15.60
2023-06-07T06:37:14.115Z,15.70
2023-06-07T06:40:41.297Z,15.50
2023-06-07T06:44:10.023Z,15.50
2023-06-07T06:47:42.537Z,15.40
2023-06-07T06:51:10.288Z,15.30
2023-06-07T06:54:39.980Z,15.30
2023-06-07T06:58:07.087Z,15.40
2023-06-07T07:01:47.414Z,15.40
2023-06-07T07:05:16.858Z,15.40
2023-06-07T07:08:44.312Z,15.30
2023-06-07T07:12:12.184Z,15.30
2023-06-07T07:15:40.734Z,15.20
2023-06-07T07:19:08.329Z,15.20
2023-06-07T07:22:35.703Z,15.00
2023-06-07T07:26:03.112Z,15.10
2023-06-07T07:29:30.773Z,15.00
2023-06-07T07:33:01.016Z,14.90
2023-06-07T07:36:29.401Z,15.00
2023-06-07T07:39:56.592Z,15.00
2023-06-07T07:43:24.188Z,15.20
2023-06-07T07:46:51.509Z,15.40
2023-06-07T07:50:20.166Z,15.20
2023-06-07T07:53:48.428Z,15.50
2023-06-07T07:57:15.909Z,15.40
2023-06-07T08:00:43.534Z,15.30
2023-06-07T08:04:10.830Z,15.30
2023-06-07T08:07:39.512Z,15.30
2023-06-07T08:11:07.996Z,15.40
2023-06-07T08:14:35.324Z,15.50
2023-06-07T08:18:02.509Z,15.40
2023-06-07T08:21:29.695Z,15.20
2023-06-07T08:24:58.467Z,15.30
2023-06-07T08:28:25.799Z,15.60
2023-06-07T08:31:53.280Z,15.60
2023-06-07T08:35:20.770Z,15.50
2023-06-07T08:38:48.539Z,15.50
2023-06-07T08:42:17.519Z,15.40
2023-06-07T08:45:45.037Z,15.50
2023-06-07T08:49:13.736Z,15.30
2023-06-07T08:52:43.898Z,15.30
2023-06-07T08:56:12.066Z,15.40
2023-06-07T08:59:43.182Z,15.20
2023-06-07T09:03:10.782Z,15.10
2023-06-07T09:06:38.458Z,15.20
2023-06-07T09:10:08.517Z,15.10
2023-06-07T09:13:36.092Z,15.30
2023-06-07T09:17:05.568Z,15.50
2023-06-07T09:20:38.409Z,15.50
2023-06-07T09:24:07.595Z,15.50
2023-06-07T09:27:37.484Z,15.50
2023-06-07T09:31:08.879Z,15.40
2023-06-07T09:34:36.755Z,15.70
2023-06-07T09:38:07.053Z,15.70
2023-06-07T09:41:34.685Z,15.50
2023-06-07T09:45:11.204Z,15.60
2023-06-07T09:48:48.589Z,15.50
2023-06-07T09:52:17.569Z,15.70
2023-06-07T09:55:45.668Z,15.70
2023-06-07T09:59:19.516Z,15.70
2023-06-07T10:02:48.481Z,15.90
2023-06-07T10:06:17.210Z,15.90
2023-06-07T10:09:46.977Z,16.10
2023-06-07T10:13:06.965Z,16.30
2023-06-07T10:16:39.622Z,16.50
2023-06-07T10:20:17.982Z,16.50
2023-06-07T10:23:47.173Z,16.80
2023-06-07T10:27:24.974Z,16.80
2023-06-07T10:31:06.744Z,16.80
2023-06-07T10:34:37.534Z,16.80
2023-06-07T10:38:06.354Z,17.00
2023-06-07T10:41:34.095Z,17.30
2023-06-07T10:45:02.169Z,17.40
2023-06-07T10:48:36.826Z,17.20
2023-06-07T10:52:07.631Z,17.30
2023-06-07T10:55:36.857Z,17.30
2023-06-07T10:59:23.646Z,17.30
2023-06-07T11:02:51.980Z,17.30
2023-06-07T11:06:21.933Z,17.60
2023-06-07T11:09:50.066Z,17.60
2023-06-07T11:14:09.782Z,17.70
2023-06-07T11:16:41.058Z,17.90
2023-06-07T11:20:14.816Z,18.00
2023-06-07T11:23:44.183Z,18.00
2023-06-07T11:27:15.619Z,17.90
2023-06-07T11:29:45.290Z,18.10
2023-06-07T11:32:14.193Z,18.30
2023-06-07T11:34:43.487Z,18.40
2023-06-07T11:37:17.984Z,18.70
2023-06-07T11:39:49.536Z,18.70
2023-06-07T11:42:53.704Z,18.60
2023-06-07T11:46:22.101Z,18.50
2023-06-07T11:49:49.116Z,18.80
2023-06-07T11:53:21.503Z,18.70
2023-06-07T11:56:51.646Z,18.80
2023-06-07T12:00:24.853Z,18.90
2023-06-07T12:03:54.902Z,19.20
2023-06-07T12:07:32.397Z,19.20
2023-06-07T12:11:01.660Z,19.50
2023-06-07T12:14:36.590Z,19.20
2023-06-07T12:18:17.292Z,19.10
2023-06-07T12:21:48.846Z,19.20
2023-06-07T12:25:18.197Z,19.40
2023-06-07T12:28:50.758Z,19.80
2023-06-07T12:32:19.367Z,20.20
2023-06-07T12:35:49.780Z,19.90
2023-06-07T12:39:17.459Z,19.90
2023-06-07T12:42:49.465Z,19.80
2023-06-07T12:46:16.753Z,19.90
2023-06-07T12:49:45.671Z,19.80
2023-06-07T12:53:13.144Z,19.70
2023-06-07T12:56:41.224Z,19.70
2023-06-07T13:00:10.503Z,20.10
2023-06-07T13:03:38.887Z,19.90
2023-06-07T13:07:15.008Z,20.20
2023-06-07T13:10:42.161Z,20.10
2023-06-07T13:14:11.544Z,20.30
2023-06-07T13:17:40.932Z,20.20
2023-06-07T13:21:10.897Z,20.10
2023-06-07T13:24:39.118Z,20.20
2023-06-07T13:28:07.314Z,20.60
2023-06-07T13:31:36.368Z,21.00
2023-06-07T13:35:04.340Z,20.80
2023-06-07T13:38:32.781Z,20.70
2023-06-07T13:42:01.779Z,21.20
2023-06-07T13:45:34.084Z,21.40
2023-06-07T13:49:03.296Z,21.80
2023-06-07T13:52:32.625Z,22.30
2023-06-07T13:56:11.730Z,22.70
2023-06-07T13:59:40.824Z,22.70
2023-06-07T14:03:11.146Z,23.20
2023-06-07T14:06:40.341Z,23.00
2023-06-07T14:10:09.279Z,22.50
2023-06-07T14:13:36.819Z,22.60
2023-06-07T14:17:04.878Z,22.80
2023-06-07T14:20:34.221Z,22.50
2023-06-07T14:24:02.489Z,22.90
2023-06-07T14:27:30.474Z,23.40
2023-06-07T14:30:58.211Z,24.10
2023-06-07T14:34:26.285Z,23.90
2023-06-07T14:37:55.059Z,23.70
2023-06-07T14:41:22.534Z,23.40
2023-06-07T14:44:49.984Z,23.30
2023-06-07T14:48:17.233Z,22.70
2023-06-07T14:51:48.461Z,22.50
2023-06-07T14:55:17.636Z,22.40
2023-06-07T14:58:45.691Z,22.70
2023-06-07T15:02:15.041Z,22.90
2023-06-07T15:05:42.361Z,23.30
2023-06-07T15:09:09.661Z,23.70
2023-06-07T15:12:39.207Z,24.00
2023-06-07T15:16:07.392Z,24.10
2023-06-07T15:19:34.859Z,24.30
2023-06-07T15:23:02.230Z,24.50
2023-06-07T15:26:30.643Z,24.30
2023-06-07T15:29:59.890Z,24.20
2023-06-07T15:33:27.096Z,23.30
2023-06-07T15:36:54.708Z,22.50
2023-06-07T15:40:22.308Z,21.80
2023-06-07T15:43:49.596Z,21.30
2023-06-07T15:47:18.539Z,21.40
2023-06-07T15:50:45.703Z,21.30
2023-06-07T15:54:12.791Z,21.00
2023-06-07T15:57:40.000Z,21.00
2023-06-07T16:01:08.582Z,21.00
2023-06-07T16:04:38.021Z,21.10
2023-06-07T16:08:13.495Z,21.10
2023-06-07T16:11:43.679Z,20.90
2023-06-07T16:15:12.175Z,20.60
2023-06-07T16:18:41.391Z,21.00
2023-06-07T16:22:08.527Z,21.40
2023-06-07T16:25:36.772Z,21.70
2023-06-07T16:29:05.520Z,21.70
2023-06-07T16:32:33.066Z,21.90
2023-06-07T16:36:02.174Z,22.00
2023-06-07T16:39:30.073Z,22.10
2023-06-07T16:42:57.516Z,22.40
2023-06-07T16:46:25.217Z,22.70
2023-06-07T16:49:52.796Z,22.70
2023-06-07T16:53:21.669Z,22.00
2023-06-07T16:56:49.077Z,21.70
2023-06-07T17:00:16.628Z,21.70
2023-06-07T17:03:43.842Z,21.50
2023-06-07T17:07:11.183Z,21.40
2023-06-07T17:10:41.769Z,21.10
2023-06-07T17:14:09.326Z,21.20
2023-06-07T17:17:36.569Z,21.10
2023-06-07T17:21:06.234Z,21.00
2023-06-07T17:24:33.366Z,21.10
2023-06-07T17:28:03.324Z,20.90
2023-06-07T17:31:30.609Z,20.90
2023-06-07T17:34:58.951Z,20.90
2023-06-07T17:38:26.435Z,21.00
2023-06-07T17:41:53.833Z,20.90
2023-06-07T17:45:23.655Z,21.00
2023-06-07T17:48:56.048Z,21.00
2023-06-07T17:52:23.967Z,21.00
2023-06-07T17:55:51.339Z,21.00
2023-06-07T17:59:18.835Z,21.10
2023-06-07T18:02:48.870Z,21.10
2023-06-07T18:06:16.432Z,20.90
2023-06-07T18:09:45.268Z,21.00
2023-06-07T18:13:12.623Z,21.10
2023-06-07T18:16:39.808Z,21.20
2023-06-07T18:20:10.221Z,21.10
2023-06-07T18:23:37.478Z,21.00
2023-06-07T18:27:05.197Z,20.90
2023-06-07T18:30:35.284Z,20.80
2023-06-07T18:34:03.694Z,20.80
2023-06-07T18:37:33.282Z,20.80
2023-06-07T18:41:01.083Z,20.70
2023-06-07T18:44:28.490Z,20.60
2023-06-07T18:47:56.050Z,20.50
2023-06-07T18:51:23.187Z,20.50
2023-06-07T18:54:52.435Z,20.40
2023-06-07T18:58:20.205Z,20.40
2023-06-07T19:01:51.279Z,20.30
2023-06-07T19:05:21.274Z,20.10
2023-06-07T19:08:48.586Z,20.00
2023-06-07T19:12:18.941Z,19.90
2023-06-07T19:15:46.092Z,19.80
2023-06-07T19:19:13.038Z,19.70
2023-06-07T19:22:40.378Z,20.00
2023-06-07T19:26:08.356Z,20.20
2023-06-07T19:29:38.967Z,20.00
2023-06-07T19:33:11.121Z,20.00
2023-06-07T19:36:39.676Z,20.00
2023-06-07T19:40:08.149Z,19.90
2023-06-07T19:43:37.956Z,19.80
2023-06-07T19:47:05.123Z,19.80
2023-06-07T19:50:32.152Z,19.50
2023-06-07T19:53:59.562Z,19.30
2023-06-07T19:57:27.277Z,19.30
2023-06-07T20:00:55.937Z,19.40
2023-06-07T20:04:23.186Z,19.40
2023-06-07T20:07:52.239Z,19.40
2023-06-07T20:11:22.493Z,19.20
2023-06-07T20:14:52.038Z,19.10
2023-06-07T20:18:21.074Z,19.10
2023-06-07T20:21:48.610Z,19.20
2023-06-07T20:25:16.802Z,19.10
2023-06-07T20:28:44.291Z,19.00
2023-06-07T20:32:12.073Z,19.00
2023-06-07T20:35:41.060Z,19.00
2023-06-07T20:39:08.607Z,19.00
2023-06-07T20:42:36.064Z,18.90
2023-06-07T20:46:03.880Z,18.70
2023-06-07T20:49:31.539Z,18.60
2023-06-07T20:53:01.356Z,18.70
2023-06-07T20:56:32.702Z,19.00
2023-06-07T21:00:02.826Z,19.00
2023-06-07T21:03:30.522Z,19.00
2023-06-07T21:06:58.730Z,19.10
2023-06-07T21:10:28.579Z,19.00
2023-06-07T21:13:55.951Z,19.20
2023-06-07T21:17:23.628Z,19.20
2023-06-07T21:20:50.842Z,19.10
2023-06-07T21:24:18.367Z,19.00
2023-06-07T21:27:47.186Z,18.90
2023-06-07T21:31:15.154Z,18.80
2023-06-07T21:34:42.529Z,18.60
2023-06-07T21:38:10.641Z,18.80
2023-06-07T21:41:37.714Z,19.00
2023-06-07T21:45:07.576Z,18.90
2023-06-07T21:48:37.172Z,18.70
2023-06-07T21:52:04.124Z,18.50
2023-06-07T21:55:31.037Z,18.40
2023-06-07T21:58:58.475Z,18.40
2023-06-07T22:02:26.883Z,18.40
2023-06-07T22:05:53.869Z,18.40
2023-06-07T22:09:21.311Z,18.40
2023-06-07T22:12:49.719Z,18.40
2023-06-07T22:16:16.944Z,18.40
2023-06-07T22:19:46.992Z,18.50
2023-06-07T22:23:15.408Z,18.40
2023-06-07T22:26:43.046Z,18.20
2023-06-07T22:30:11.008Z,18.20
2023-06-07T22:33:38.479Z,18.20
2023-06-07T22:37:09.145Z,18.20
2023-06-07T22:40:37.083Z,18.20
2023-06-07T22:44:04.769Z,18.10
2023-06-07T22:47:33.704Z,18.30
2023-06-07T22:51:02.120Z,18.10
2023-06-07T22:54:31.127Z,18.10
2023-06-07T22:57:58.496Z,18.30
2023-06-07T23:01:26.103Z,18.20
2023-06-07T23:04:53.625Z,18.20
2023-06-07T23:08:22.283Z,18.10
2023-06-07T23:11:54.241Z,18.10
2023-06-07T23:15:21.367Z,18.10
2023-06-07T23:18:48.446Z,18.00
2023-06-07T23:22:18.018Z,18.00
2023-06-07T23:25:45.141Z,18.00
2023-06-07T23:29:13.577Z,18.00
2023-06-07T23:32:40.588Z,18.00
2023-06-07T23:36:08.321Z,18.00
2023-06-07T23:39:35.148Z,17.90
2023-06-07T23:43:03.265Z,17.90
2023-06-07T23:46:32.651Z,18.00
2023-06-07T23:50:00.489Z,17.80
2023-06-07T23:53:27.510Z,17.80
2023-06-07T23:56:54.600Z,17.70
